Terminal Aerodrome Forecast
Issued by NWS

Home | Current Version | Previous Version | Text Only | Print | Product List | Glossary On
Versions: 1 2 3 4 5 6 7 8 9 10 11 12 13 14 15 16
000
FTUS43 KEAX 301121
TAFMKC
TAF
KMKC 301121Z 3012/3112 05005KT 6SM BR OVC009
     FM301500 09006KT P6SM BKN018
     FM301700 09007KT P6SM SCT025 BKN035
     FM310200 VRB04KT P6SM SKC=

USA.gov is the U.S. government's official web portal to all federal, state and local government web resources and services.